Terminal Aerodrome Forecast
Issued by NWS Charleston, WV

Current Version | Previous Version | Graphics & Text | Print | Product List | Glossary On
Versions: 1 2 3 4 5 6 7 8 9 10 11 12 13 14 15 16 17 18 19 20 21 22 23 24 25
886
FTUS41 KRLX 180536
TAFBKW
TAF
KBKW 180536Z 1806/1906 11009KT P6SM -SHRA BKN080
     FM180800 12008KT P6SM BKN020 BKN080
     FM181100 11010KT P6SM SHRA OVC012
      TEMPO 1812/1815 4SM -RA OVC015
     FM181500 11012G18KT P6SM -SHRA SCT025 BKN080
     FM190200 13011KT P6SM OVC015=

USA.gov is the U.S. government's official web portal to all federal, state and local government web resources and services.